sensor_id;sensor_type;location;lat;lon;timestamp;P1;durP1;ratioP1;P2;durP2;ratioP2
44110;SDS011;29774;52.664;5.074;2022-12-18T00:01:47;52.63;;;23.92;;
44110;SDS011;29774;52.664;5.074;2022-12-18T00:04:22;54.60;;;24.85;;
44110;SDS011;29774;52.664;5.074;2022-12-18T00:06:49;52.63;;;24.00;;
44110;SDS011;29774;52.664;5.074;2022-12-18T00:09:15;51.30;;;25.30;;
44110;SDS011;29774;52.664;5.074;2022-12-18T00:11:41;48.38;;;22.63;;
44110;SDS011;29774;52.664;5.074;2022-12-18T00:14:07;48.53;;;23.92;;
44110;SDS011;29774;52.664;5.074;2022-12-18T00:16:33;47.78;;;23.70;;
44110;SDS011;29774;52.664;5.074;2022-12-18T00:19:01;43.30;;;21.00;;
44110;SDS011;29774;52.664;5.074;2022-12-18T00:21:28;35.78;;;18.67;;
44110;SDS011;29774;52.664;5.074;2022-12-18T00:23:55;41.85;;;20.63;;
44110;SDS011;29774;52.664;5.074;2022-12-18T00:28:47;37.22;;;20.55;;
44110;SDS011;29774;52.664;5.074;2022-12-18T00:31:15;37.60;;;18.60;;
44110;SDS011;29774;52.664;5.074;2022-12-18T00:33:43;37.10;;;17.73;;
44110;SDS011;29774;52.664;5.074;2022-12-18T00:38:37;40.97;;;19.83;;
44110;SDS011;29774;52.664;5.074;2022-12-18T00:41:03;38.20;;;19.38;;
44110;SDS011;29774;52.664;5.074;2022-12-18T00:43:29;36.20;;;18.45;;
44110;SDS011;29774;52.664;5.074;2022-12-18T00:45:55;44.40;;;20.23;;
44110;SDS011;29774;52.664;5.074;2022-12-18T00:48:21;39.20;;;19.30;;
44110;SDS011;29774;52.664;5.074;2022-12-18T00:50:49;32.42;;;16.27;;
44110;SDS011;29774;52.664;5.074;2022-12-18T00:53:15;39.05;;;19.52;;
44110;SDS011;29774;52.664;5.074;2022-12-18T00:55:41;39.92;;;18.95;;
44110;SDS011;29774;52.664;5.074;2022-12-18T00:58:08;33.15;;;18.02;;
44110;SDS011;29774;52.664;5.074;2022-12-18T01:00:35;34.60;;;17.05;;
44110;SDS011;29774;52.664;5.074;2022-12-18T01:03:01;36.40;;;18.50;;
44110;SDS011;29774;52.664;5.074;2022-12-18T01:05:26;35.88;;;19.17;;
44110;SDS011;29774;52.664;5.074;2022-12-18T01:07:52;36.80;;;18.40;;
44110;SDS011;29774;52.664;5.074;2022-12-18T01:10:18;39.03;;;20.27;;
44110;SDS011;29774;52.664;5.074;2022-12-18T01:12:43;41.13;;;20.08;;
44110;SDS011;29774;52.664;5.074;2022-12-18T01:15:10;38.88;;;19.63;;
44110;SDS011;29774;52.664;5.074;2022-12-18T01:17:37;41.67;;;20.15;;
44110;SDS011;29774;52.664;5.074;2022-12-18T01:20:03;38.35;;;20.88;;
44110;SDS011;29774;52.664;5.074;2022-12-18T01:22:29;40.15;;;19.58;;
44110;SDS011;29774;52.664;5.074;2022-12-18T01:24:54;42.72;;;20.33;;
44110;SDS011;29774;52.664;5.074;2022-12-18T01:27:20;43.25;;;21.40;;
44110;SDS011;29774;52.664;5.074;2022-12-18T01:29:45;42.53;;;21.55;;
44110;SDS011;29774;52.664;5.074;2022-12-18T01:32:11;39.58;;;20.60;;
44110;SDS011;29774;52.664;5.074;2022-12-18T01:34:37;45.10;;;21.25;;
44110;SDS011;29774;52.664;5.074;2022-12-18T01:37:03;39.95;;;20.42;;
44110;SDS011;29774;52.664;5.074;2022-12-18T01:39:29;44.17;;;21.27;;
44110;SDS011;29774;52.664;5.074;2022-12-18T01:41:55;40.30;;;20.38;;
44110;SDS011;29774;52.664;5.074;2022-12-18T01:44:50;39.30;;;20.08;;
44110;SDS011;29774;52.664;5.074;2022-12-18T01:49:55;41.08;;;19.83;;
44110;SDS011;29774;52.664;5.074;2022-12-18T01:52:22;36.28;;;19.65;;
44110;SDS011;29774;52.664;5.074;2022-12-18T01:54:50;41.15;;;20.65;;
44110;SDS011;29774;52.664;5.074;2022-12-18T01:57:17;41.80;;;20.40;;
44110;SDS011;29774;52.664;5.074;2022-12-18T01:59:43;38.67;;;19.95;;
44110;SDS011;29774;52.664;5.074;2022-12-18T02:02:11;39.58;;;20.10;;
44110;SDS011;29774;52.664;5.074;2022-12-18T02:04:38;40.38;;;20.08;;
44110;SDS011;29774;52.664;5.074;2022-12-18T02:09:55;39.08;;;19.77;;
44110;SDS011;29774;52.664;5.074;2022-12-18T02:12:42;41.35;;;20.27;;
44110;SDS011;29774;52.664;5.074;2022-12-18T02:20:24;41.38;;;20.30;;
44110;SDS011;29774;52.664;5.074;2022-12-18T02:23:09;41.03;;;18.90;;
44110;SDS011;29774;52.664;5.074;2022-12-18T02:28:35;44.70;;;21.83;;
44110;SDS011;29774;52.664;5.074;2022-12-18T02:31:07;38.17;;;19.10;;
44110;SDS011;29774;52.664;5.074;2022-12-18T02:33:38;36.95;;;19.45;;
44110;SDS011;29774;52.664;5.074;2022-12-18T02:36:06;37.08;;;19.05;;
44110;SDS011;29774;52.664;5.074;2022-12-18T02:38:34;39.75;;;20.13;;
44110;SDS011;29774;52.664;5.074;2022-12-18T02:41:01;39.15;;;20.00;;
44110;SDS011;29774;52.664;5.074;2022-12-18T02:43:28;40.38;;;20.20;;
44110;SDS011;29774;52.664;5.074;2022-12-18T02:45:58;35.78;;;18.17;;
44110;SDS011;29774;52.664;5.074;2022-12-18T02:48:27;34.65;;;19.08;;
44110;SDS011;29774;52.664;5.074;2022-12-18T02:57:24;38.38;;;18.23;;
44110;SDS011;29774;52.664;5.074;2022-12-18T03:05:15;38.50;;;19.40;;
44110;SDS011;29774;52.664;5.074;2022-12-18T03:07:51;34.33;;;18.50;;
44110;SDS011;29774;52.664;5.074;2022-12-18T03:10:27;37.60;;;20.00;;
44110;SDS011;29774;52.664;5.074;2022-12-18T03:12:58;39.63;;;20.20;;
44110;SDS011;29774;52.664;5.074;2022-12-18T03:15:30;38.72;;;18.38;;
44110;SDS011;29774;52.664;5.074;2022-12-18T03:18:04;38.17;;;20.65;;
44110;SDS011;29774;52.664;5.074;2022-12-18T03:20:35;38.45;;;19.02;;
44110;SDS011;29774;52.664;5.074;2022-12-18T03:23:09;36.88;;;19.10;;
44110;SDS011;29774;52.664;5.074;2022-12-18T03:25:38;37.42;;;20.48;;
44110;SDS011;29774;52.664;5.074;2022-12-18T03:28:07;29.75;;;15.68;;
44110;SDS011;29774;52.664;5.074;2022-12-18T03:30:37;34.83;;;19.02;;
44110;SDS011;29774;52.664;5.074;2022-12-18T03:35:56;37.70;;;21.23;;
44110;SDS011;29774;52.664;5.074;2022-12-18T03:38:22;33.88;;;19.98;;
44110;SDS011;29774;52.664;5.074;2022-12-18T03:40:53;35.75;;;19.42;;
44110;SDS011;29774;52.664;5.074;2022-12-18T03:49:14;35.25;;;18.15;;
44110;SDS011;29774;52.664;5.074;2022-12-18T03:52:13;31.45;;;18.60;;
44110;SDS011;29774;52.664;5.074;2022-12-18T03:54:51;32.72;;;17.02;;
44110;SDS011;29774;52.664;5.074;2022-12-18T03:57:21;31.30;;;16.38;;
44110;SDS011;29774;52.664;5.074;2022-12-18T03:59:50;32.45;;;17.00;;
44110;SDS011;29774;52.664;5.074;2022-12-18T04:02:20;32.40;;;18.00;;
44110;SDS011;29774;52.664;5.074;2022-12-18T04:04:50;31.63;;;17.73;;
44110;SDS011;29774;52.664;5.074;2022-12-18T04:07:18;33.42;;;18.10;;
44110;SDS011;29774;52.664;5.074;2022-12-18T04:09:46;30.35;;;17.33;;
44110;SDS011;29774;52.664;5.074;2022-12-18T04:12:13;31.42;;;17.77;;
44110;SDS011;29774;52.664;5.074;2022-12-18T04:14:38;32.72;;;18.15;;
44110;SDS011;29774;52.664;5.074;2022-12-18T04:17:04;34.50;;;19.60;;
44110;SDS011;29774;52.664;5.074;2022-12-18T04:19:30;32.88;;;19.27;;
44110;SDS011;29774;52.664;5.074;2022-12-18T04:21:55;35.83;;;18.33;;
44110;SDS011;29774;52.664;5.074;2022-12-18T04:24:21;34.30;;;18.52;;
44110;SDS011;29774;52.664;5.074;2022-12-18T04:26:47;33.58;;;18.67;;
44110;SDS011;29774;52.664;5.074;2022-12-18T04:29:12;33.95;;;19.45;;
44110;SDS011;29774;52.664;5.074;2022-12-18T04:31:38;33.00;;;18.55;;
44110;SDS011;29774;52.664;5.074;2022-12-18T04:34:03;35.38;;;18.40;;
44110;SDS011;29774;52.664;5.074;2022-12-18T04:36:29;36.47;;;19.55;;
44110;SDS011;29774;52.664;5.074;2022-12-18T04:38:55;31.40;;;17.73;;
44110;SDS011;29774;52.664;5.074;2022-12-18T04:41:21;31.52;;;16.88;;
44110;SDS011;29774;52.664;5.074;2022-12-18T04:43:46;33.33;;;19.25;;
44110;SDS011;29774;52.664;5.074;2022-12-18T04:46:12;37.83;;;18.58;;
44110;SDS011;29774;52.664;5.074;2022-12-18T04:48:38;31.10;;;18.00;;
44110;SDS011;29774;52.664;5.074;2022-12-18T04:51:04;33.55;;;18.52;;
44110;SDS011;29774;52.664;5.074;2022-12-18T04:53:30;33.35;;;18.77;;
44110;SDS011;29774;52.664;5.074;2022-12-18T04:56:06;32.42;;;18.60;;
44110;SDS011;29774;52.664;5.074;2022-12-18T04:58:34;35.10;;;18.50;;
44110;SDS011;29774;52.664;5.074;2022-12-18T05:01:00;34.13;;;18.33;;
44110;SDS011;29774;52.664;5.074;2022-12-18T05:03:26;33.67;;;18.58;;
44110;SDS011;29774;52.664;5.074;2022-12-18T05:05:51;31.58;;;18.17;;
44110;SDS011;29774;52.664;5.074;2022-12-18T05:08:17;33.75;;;16.83;;
44110;SDS011;29774;52.664;5.074;2022-12-18T05:10:43;35.03;;;18.40;;
44110;SDS011;29774;52.664;5.074;2022-12-18T05:13:09;30.02;;;16.77;;
44110;SDS011;29774;52.664;5.074;2022-12-18T05:15:34;31.52;;;18.05;;
44110;SDS011;29774;52.664;5.074;2022-12-18T05:18:00;30.95;;;17.88;;
44110;SDS011;29774;52.664;5.074;2022-12-18T05:20:27;29.30;;;16.67;;
44110;SDS011;29774;52.664;5.074;2022-12-18T05:22:53;32.15;;;18.50;;
44110;SDS011;29774;52.664;5.074;2022-12-18T05:25:19;30.80;;;17.65;;
44110;SDS011;29774;52.664;5.074;2022-12-18T05:27:45;30.40;;;17.17;;
44110;SDS011;29774;52.664;5.074;2022-12-18T05:30:11;31.95;;;18.70;;
44110;SDS011;29774;52.664;5.074;2022-12-18T05:32:37;31.13;;;17.67;;
44110;SDS011;29774;52.664;5.074;2022-12-18T05:35:03;31.52;;;17.70;;
44110;SDS011;29774;52.664;5.074;2022-12-18T05:37:30;29.30;;;17.60;;
44110;SDS011;29774;52.664;5.074;2022-12-18T05:39:56;29.10;;;17.83;;
44110;SDS011;29774;52.664;5.074;2022-12-18T05:42:21;29.92;;;17.02;;
44110;SDS011;29774;52.664;5.074;2022-12-18T05:44:47;31.60;;;17.40;;
44110;SDS011;29774;52.664;5.074;2022-12-18T05:47:13;31.73;;;17.25;;
44110;SDS011;29774;52.664;5.074;2022-12-18T05:49:38;29.98;;;17.58;;
44110;SDS011;29774;52.664;5.074;2022-12-18T05:52:04;29.90;;;17.02;;
44110;SDS011;29774;52.664;5.074;2022-12-18T05:54:30;26.98;;;16.23;;
44110;SDS011;29774;52.664;5.074;2022-12-18T05:56:56;28.88;;;16.85;;
44110;SDS011;29774;52.664;5.074;2022-12-18T05:59:22;28.98;;;15.73;;
44110;SDS011;29774;52.664;5.074;2022-12-18T06:01:47;28.80;;;17.60;;
44110;SDS011;29774;52.664;5.074;2022-12-18T06:04:13;27.80;;;16.67;;
44110;SDS011;29774;52.664;5.074;2022-12-18T06:06:38;32.03;;;17.38;;
44110;SDS011;29774;52.664;5.074;2022-12-18T06:09:04;32.88;;;17.73;;
44110;SDS011;29774;52.664;5.074;2022-12-18T06:11:33;24.23;;;15.82;;
44110;SDS011;29774;52.664;5.074;2022-12-18T06:14:00;27.15;;;16.85;;
44110;SDS011;29774;52.664;5.074;2022-12-18T06:16:26;27.38;;;16.15;;
44110;SDS011;29774;52.664;5.074;2022-12-18T06:18:53;25.50;;;16.85;;
44110;SDS011;29774;52.664;5.074;2022-12-18T06:21:20;30.13;;;17.40;;
44110;SDS011;29774;52.664;5.074;2022-12-18T06:23:46;27.80;;;17.23;;
44110;SDS011;29774;52.664;5.074;2022-12-18T06:26:12;28.20;;;15.45;;
44110;SDS011;29774;52.664;5.074;2022-12-18T06:28:38;26.63;;;16.05;;
44110;SDS011;29774;52.664;5.074;2022-12-18T06:31:04;24.95;;;15.48;;
44110;SDS011;29774;52.664;5.074;2022-12-18T06:33:31;23.48;;;14.52;;
44110;SDS011;29774;52.664;5.074;2022-12-18T06:36:01;23.80;;;13.32;;
44110;SDS011;29774;52.664;5.074;2022-12-18T06:38:28;23.70;;;14.85;;
44110;SDS011;29774;52.664;5.074;2022-12-18T06:40:54;22.42;;;13.90;;
44110;SDS011;29774;52.664;5.074;2022-12-18T06:43:19;23.42;;;13.85;;
44110;SDS011;29774;52.664;5.074;2022-12-18T06:45:45;20.15;;;12.98;;
44110;SDS011;29774;52.664;5.074;2022-12-18T06:48:14;23.48;;;13.10;;
44110;SDS011;29774;52.664;5.074;2022-12-18T06:50:42;24.88;;;13.80;;
44110;SDS011;29774;52.664;5.074;2022-12-18T06:53:07;21.33;;;13.90;;
44110;SDS011;29774;52.664;5.074;2022-12-18T06:55:33;22.02;;;13.20;;
44110;SDS011;29774;52.664;5.074;2022-12-18T06:57:59;18.45;;;13.00;;
44110;SDS011;29774;52.664;5.074;2022-12-18T07:00:24;21.90;;;12.23;;
44110;SDS011;29774;52.664;5.074;2022-12-18T07:02:50;20.25;;;12.10;;
44110;SDS011;29774;52.664;5.074;2022-12-18T07:05:15;19.70;;;11.68;;
44110;SDS011;29774;52.664;5.074;2022-12-18T07:07:41;20.90;;;12.70;;
44110;SDS011;29774;52.664;5.074;2022-12-18T07:10:07;19.08;;;12.13;;
44110;SDS011;29774;52.664;5.074;2022-12-18T07:12:33;21.05;;;12.13;;
44110;SDS011;29774;52.664;5.074;2022-12-18T07:14:58;17.60;;;11.98;;
44110;SDS011;29774;52.664;5.074;2022-12-18T07:17:24;18.75;;;11.77;;
44110;SDS011;29774;52.664;5.074;2022-12-18T07:19:49;20.23;;;11.27;;
44110;SDS011;29774;52.664;5.074;2022-12-18T07:22:15;17.17;;;11.38;;
44110;SDS011;29774;52.664;5.074;2022-12-18T07:24:41;16.63;;;10.50;;
44110;SDS011;29774;52.664;5.074;2022-12-18T07:27:06;19.33;;;12.10;;
44110;SDS011;29774;52.664;5.074;2022-12-18T07:29:32;17.08;;;11.30;;
44110;SDS011;29774;52.664;5.074;2022-12-18T07:31:57;16.58;;;11.10;;
44110;SDS011;29774;52.664;5.074;2022-12-18T07:34:23;16.98;;;10.88;;
44110;SDS011;29774;52.664;5.074;2022-12-18T07:36:48;17.88;;;11.07;;
44110;SDS011;29774;52.664;5.074;2022-12-18T07:39:14;17.70;;;10.63;;
44110;SDS011;29774;52.664;5.074;2022-12-18T07:41:40;20.38;;;11.57;;
44110;SDS011;29774;52.664;5.074;2022-12-18T07:44:28;15.80;;;10.90;;
44110;SDS011;29774;52.664;5.074;2022-12-18T07:46:54;16.13;;;10.63;;
44110;SDS011;29774;52.664;5.074;2022-12-18T07:49:20;17.33;;;11.00;;
44110;SDS011;29774;52.664;5.074;2022-12-18T07:51:45;16.55;;;10.32;;
44110;SDS011;29774;52.664;5.074;2022-12-18T07:54:14;18.80;;;11.60;;
44110;SDS011;29774;52.664;5.074;2022-12-18T07:56:39;18.17;;;11.07;;
44110;SDS011;29774;52.664;5.074;2022-12-18T07:59:05;14.43;;;9.73;;
44110;SDS011;29774;52.664;5.074;2022-12-18T08:01:31;15.00;;;10.85;;
44110;SDS011;29774;52.664;5.074;2022-12-18T08:03:57;15.02;;;10.48;;
44110;SDS011;29774;52.664;5.074;2022-12-18T08:06:23;14.88;;;10.15;;
44110;SDS011;29774;52.664;5.074;2022-12-18T08:08:53;15.18;;;9.95;;
44110;SDS011;29774;52.664;5.074;2022-12-18T08:11:20;14.20;;;10.63;;
44110;SDS011;29774;52.664;5.074;2022-12-18T08:13:46;13.73;;;9.48;;
44110;SDS011;29774;52.664;5.074;2022-12-18T08:16:13;15.95;;;10.52;;
44110;SDS011;29774;52.664;5.074;2022-12-18T08:18:38;14.40;;;10.25;;
44110;SDS011;29774;52.664;5.074;2022-12-18T08:21:23;16.30;;;9.98;;
44110;SDS011;29774;52.664;5.074;2022-12-18T08:23:51;14.05;;;9.23;;
44110;SDS011;29774;52.664;5.074;2022-12-18T08:26:17;12.02;;;9.07;;
44110;SDS011;29774;52.664;5.074;2022-12-18T08:28:44;14.73;;;9.98;;
44110;SDS011;29774;52.664;5.074;2022-12-18T08:31:10;13.77;;;9.50;;
44110;SDS011;29774;52.664;5.074;2022-12-18T08:33:36;12.77;;;9.23;;
44110;SDS011;29774;52.664;5.074;2022-12-18T08:36:03;16.33;;;9.05;;
44110;SDS011;29774;52.664;5.074;2022-12-18T08:38:29;13.18;;;9.93;;
44110;SDS011;29774;52.664;5.074;2022-12-18T08:41:00;13.20;;;8.73;;
44110;SDS011;29774;52.664;5.074;2022-12-18T08:43:26;11.88;;;8.82;;
44110;SDS011;29774;52.664;5.074;2022-12-18T08:46:10;12.52;;;9.27;;
44110;SDS011;29774;52.664;5.074;2022-12-18T08:48:36;14.23;;;9.07;;
44110;SDS011;29774;52.664;5.074;2022-12-18T08:51:02;13.05;;;8.70;;
44110;SDS011;29774;52.664;5.074;2022-12-18T08:53:28;12.85;;;9.10;;
44110;SDS011;29774;52.664;5.074;2022-12-18T08:55:53;11.82;;;8.45;;
44110;SDS011;29774;52.664;5.074;2022-12-18T08:58:20;12.05;;;8.60;;
44110;SDS011;29774;52.664;5.074;2022-12-18T09:00:46;11.35;;;9.38;;
44110;SDS011;29774;52.664;5.074;2022-12-18T09:03:15;12.57;;;8.40;;
44110;SDS011;29774;52.664;5.074;2022-12-18T09:05:42;12.57;;;9.40;;
44110;SDS011;29774;52.664;5.074;2022-12-18T09:08:08;11.57;;;8.43;;
44110;SDS011;29774;52.664;5.074;2022-12-18T09:10:40;13.43;;;8.60;;
44110;SDS011;29774;52.664;5.074;2022-12-18T09:13:07;14.55;;;9.55;;
44110;SDS011;29774;52.664;5.074;2022-12-18T09:15:34;13.25;;;8.65;;
44110;SDS011;29774;52.664;5.074;2022-12-18T09:18:04;14.55;;;9.23;;
44110;SDS011;29774;52.664;5.074;2022-12-18T09:20:30;15.10;;;8.80;;
44110;SDS011;29774;52.664;5.074;2022-12-18T09:22:55;13.30;;;9.50;;
44110;SDS011;29774;52.664;5.074;2022-12-18T09:25:21;12.70;;;8.93;;
44110;SDS011;29774;52.664;5.074;2022-12-18T09:27:47;12.90;;;9.52;;
44110;SDS011;29774;52.664;5.074;2022-12-18T09:30:13;11.43;;;8.20;;
44110;SDS011;29774;52.664;5.074;2022-12-18T09:32:38;12.82;;;9.10;;
44110;SDS011;29774;52.664;5.074;2022-12-18T09:35:04;14.45;;;8.90;;
44110;SDS011;29774;52.664;5.074;2022-12-18T09:37:30;13.85;;;9.20;;
44110;SDS011;29774;52.664;5.074;2022-12-18T09:39:56;12.75;;;9.23;;
44110;SDS011;29774;52.664;5.074;2022-12-18T09:42:21;11.55;;;7.80;;
44110;SDS011;29774;52.664;5.074;2022-12-18T09:44:49;11.30;;;8.57;;
44110;SDS011;29774;52.664;5.074;2022-12-18T09:47:18;13.13;;;8.77;;
44110;SDS011;29774;52.664;5.074;2022-12-18T09:49:58;12.55;;;8.85;;
44110;SDS011;29774;52.664;5.074;2022-12-18T09:55:09;13.18;;;8.45;;
44110;SDS011;29774;52.664;5.074;2022-12-18T10:00:53;12.23;;;8.50;;
44110;SDS011;29774;52.664;5.074;2022-12-18T10:03:19;10.95;;;8.25;;
44110;SDS011;29774;52.664;5.074;2022-12-18T10:10:58;11.88;;;8.48;;
44110;SDS011;29774;52.664;5.074;2022-12-18T10:22:40;11.48;;;8.05;;
44110;SDS011;29774;52.664;5.074;2022-12-18T10:28:20;10.35;;;7.75;;
44110;SDS011;29774;52.664;5.074;2022-12-18T10:30:47;14.23;;;8.63;;
44110;SDS011;29774;52.664;5.074;2022-12-18T10:33:17;11.77;;;8.15;;
44110;SDS011;29774;52.664;5.074;2022-12-18T10:35:48;13.02;;;8.13;;
44110;SDS011;29774;52.664;5.074;2022-12-18T10:40:48;11.60;;;7.53;;
44110;SDS011;29774;52.664;5.074;2022-12-18T10:43:37;11.25;;;7.35;;
44110;SDS011;29774;52.664;5.074;2022-12-18T10:48:39;10.82;;;7.47;;
44110;SDS011;29774;52.664;5.074;2022-12-18T10:51:26;8.75;;;6.60;;
44110;SDS011;29774;52.664;5.074;2022-12-18T10:54:05;9.68;;;7.22;;
44110;SDS011;29774;52.664;5.074;2022-12-18T10:56:38;10.25;;;6.45;;
44110;SDS011;29774;52.664;5.074;2022-12-18T10:59:08;12.07;;;7.70;;
44110;SDS011;29774;52.664;5.074;2022-12-18T11:04:13;10.25;;;6.80;;
44110;SDS011;29774;52.664;5.074;2022-12-18T11:06:52;12.07;;;7.20;;
44110;SDS011;29774;52.664;5.074;2022-12-18T11:09:30;9.68;;;6.93;;
44110;SDS011;29774;52.664;5.074;2022-12-18T11:11:58;9.98;;;7.20;;
44110;SDS011;29774;52.664;5.074;2022-12-18T11:17:18;12.07;;;8.10;;
44110;SDS011;29774;52.664;5.074;2022-12-18T11:19:58;12.43;;;7.57;;
44110;SDS011;29774;52.664;5.074;2022-12-18T11:22:26;10.10;;;7.10;;
44110;SDS011;29774;52.664;5.074;2022-12-18T11:25:04;12.32;;;6.85;;
44110;SDS011;29774;52.664;5.074;2022-12-18T11:27:31;10.32;;;7.43;;
44110;SDS011;29774;52.664;5.074;2022-12-18T11:30:07;9.60;;;7.97;;
44110;SDS011;29774;52.664;5.074;2022-12-18T11:32:40;10.45;;;7.20;;
44110;SDS011;29774;52.664;5.074;2022-12-18T11:35:21;14.32;;;8.70;;
44110;SDS011;29774;52.664;5.074;2022-12-18T11:38:12;11.27;;;7.35;;
44110;SDS011;29774;52.664;5.074;2022-12-18T11:40:47;11.38;;;7.30;;
44110;SDS011;29774;52.664;5.074;2022-12-18T11:43:25;9.80;;;7.45;;
44110;SDS011;29774;52.664;5.074;2022-12-18T11:46:17;9.82;;;6.90;;
44110;SDS011;29774;52.664;5.074;2022-12-18T11:51:54;9.90;;;7.13;;
44110;SDS011;29774;52.664;5.074;2022-12-18T11:54:26;10.18;;;7.18;;
44110;SDS011;29774;52.664;5.074;2022-12-18T11:56:56;12.88;;;7.40;;
44110;SDS011;29774;52.664;5.074;2022-12-18T11:59:44;10.43;;;6.85;;
44110;SDS011;29774;52.664;5.074;2022-12-18T12:07:52;11.52;;;6.55;;
44110;SDS011;29774;52.664;5.074;2022-12-18T12:21:35;11.65;;;7.65;;
44110;SDS011;29774;52.664;5.074;2022-12-18T12:26:52;8.35;;;6.78;;
44110;SDS011;29774;52.664;5.074;2022-12-18T12:35:16;8.70;;;6.70;;
44110;SDS011;29774;52.664;5.074;2022-12-18T12:40:47;9.20;;;7.03;;
44110;SDS011;29774;52.664;5.074;2022-12-18T12:45:54;10.75;;;6.90;;
44110;SDS011;29774;52.664;5.074;2022-12-18T12:48:43;11.25;;;7.38;;
44110;SDS011;29774;52.664;5.074;2022-12-18T12:53:49;9.00;;;6.47;;
44110;SDS011;29774;52.664;5.074;2022-12-18T12:56:16;9.38;;;6.72;;
44110;SDS011;29774;52.664;5.074;2022-12-18T13:01:28;10.13;;;6.97;;
44110;SDS011;29774;52.664;5.074;2022-12-18T13:04:18;9.23;;;6.85;;
44110;SDS011;29774;52.664;5.074;2022-12-18T13:06:50;10.52;;;7.45;;
44110;SDS011;29774;52.664;5.074;2022-12-18T13:09:29;10.65;;;7.13;;
44110;SDS011;29774;52.664;5.074;2022-12-18T13:12:05;9.65;;;7.13;;
44110;SDS011;29774;52.664;5.074;2022-12-18T13:14:55;10.63;;;7.55;;
44110;SDS011;29774;52.664;5.074;2022-12-18T13:20:35;9.75;;;7.20;;
44110;SDS011;29774;52.664;5.074;2022-12-18T13:25:51;10.30;;;7.55;;
44110;SDS011;29774;52.664;5.074;2022-12-18T13:34:28;11.23;;;7.30;;
44110;SDS011;29774;52.664;5.074;2022-12-18T13:39:57;10.65;;;7.55;;
44110;SDS011;29774;52.664;5.074;2022-12-18T13:48:29;14.88;;;9.32;;
44110;SDS011;29774;52.664;5.074;2022-12-18T13:51:05;11.90;;;7.05;;
44110;SDS011;29774;52.664;5.074;2022-12-18T13:53:38;12.40;;;8.15;;
44110;SDS011;29774;52.664;5.074;2022-12-18T13:56:09;10.52;;;7.50;;
44110;SDS011;29774;52.664;5.074;2022-12-18T13:58:40;11.10;;;7.88;;
44110;SDS011;29774;52.664;5.074;2022-12-18T14:01:14;18.33;;;10.30;;
44110;SDS011;29774;52.664;5.074;2022-12-18T14:03:50;9.50;;;7.18;;
44110;SDS011;29774;52.664;5.074;2022-12-18T14:06:15;11.68;;;7.80;;
44110;SDS011;29774;52.664;5.074;2022-12-18T14:08:41;11.38;;;7.68;;
44110;SDS011;29774;52.664;5.074;2022-12-18T14:11:17;15.85;;;9.60;;
44110;SDS011;29774;52.664;5.074;2022-12-18T14:13:47;15.73;;;9.25;;
44110;SDS011;29774;52.664;5.074;2022-12-18T14:16:14;10.60;;;7.47;;
44110;SDS011;29774;52.664;5.074;2022-12-18T14:18:43;12.13;;;7.97;;
44110;SDS011;29774;52.664;5.074;2022-12-18T14:21:24;14.82;;;8.40;;
44110;SDS011;29774;52.664;5.074;2022-12-18T14:24:04;13.52;;;9.38;;
44110;SDS011;29774;52.664;5.074;2022-12-18T14:26:37;12.85;;;8.18;;
44110;SDS011;29774;52.664;5.074;2022-12-18T14:34:46;13.20;;;10.18;;
44110;SDS011;29774;52.664;5.074;2022-12-18T14:37:13;14.05;;;11.55;;
44110;SDS011;29774;52.664;5.074;2022-12-18T14:39:40;12.48;;;7.78;;
44110;SDS011;29774;52.664;5.074;2022-12-18T14:42:25;12.23;;;7.47;;
44110;SDS011;29774;52.664;5.074;2022-12-18T14:47:57;11.35;;;7.97;;
44110;SDS011;29774;52.664;5.074;2022-12-18T14:50:24;11.07;;;7.57;;
44110;SDS011;29774;52.664;5.074;2022-12-18T14:52:50;11.90;;;7.93;;
44110;SDS011;29774;52.664;5.074;2022-12-18T14:55:19;11.93;;;8.10;;
44110;SDS011;29774;52.664;5.074;2022-12-18T14:57:46;11.30;;;7.70;;
44110;SDS011;29774;52.664;5.074;2022-12-18T15:00:16;10.48;;;7.20;;
44110;SDS011;29774;52.664;5.074;2022-12-18T15:02:44;10.55;;;7.72;;
44110;SDS011;29774;52.664;5.074;2022-12-18T15:05:20;11.80;;;8.35;;
44110;SDS011;29774;52.664;5.074;2022-12-18T15:07:51;10.48;;;8.40;;
44110;SDS011;29774;52.664;5.074;2022-12-18T15:12:50;13.15;;;8.60;;
44110;SDS011;29774;52.664;5.074;2022-12-18T15:18:24;14.18;;;8.98;;
44110;SDS011;29774;52.664;5.074;2022-12-18T15:20:59;11.07;;;8.15;;
44110;SDS011;29774;52.664;5.074;2022-12-18T15:23:45;12.95;;;7.95;;
44110;SDS011;29774;52.664;5.074;2022-12-18T15:26:16;10.18;;;7.65;;
44110;SDS011;29774;52.664;5.074;2022-12-18T15:28:51;13.75;;;8.48;;
44110;SDS011;29774;52.664;5.074;2022-12-18T15:36:18;13.23;;;8.50;;
44110;SDS011;29774;52.664;5.074;2022-12-18T15:38:52;12.13;;;7.75;;
44110;SDS011;29774;52.664;5.074;2022-12-18T15:41:20;12.77;;;8.02;;
44110;SDS011;29774;52.664;5.074;2022-12-18T15:43:47;11.25;;;7.25;;
44110;SDS011;29774;52.664;5.074;2022-12-18T15:46:18;12.43;;;8.55;;
44110;SDS011;29774;52.664;5.074;2022-12-18T15:48:46;12.75;;;8.55;;
44110;SDS011;29774;52.664;5.074;2022-12-18T15:51:26;12.48;;;8.75;;
44110;SDS011;29774;52.664;5.074;2022-12-18T15:53:56;11.75;;;8.48;;
44110;SDS011;29774;52.664;5.074;2022-12-18T15:56:26;11.63;;;8.38;;
44110;SDS011;29774;52.664;5.074;2022-12-18T15:59:14;12.45;;;7.68;;
44110;SDS011;29774;52.664;5.074;2022-12-18T16:01:43;11.93;;;8.85;;
44110;SDS011;29774;52.664;5.074;2022-12-18T16:04:11;13.25;;;7.53;;
44110;SDS011;29774;52.664;5.074;2022-12-18T16:06:38;12.52;;;8.38;;
44110;SDS011;29774;52.664;5.074;2022-12-18T16:09:04;11.43;;;8.02;;
44110;SDS011;29774;52.664;5.074;2022-12-18T16:11:30;12.70;;;8.90;;
44110;SDS011;29774;52.664;5.074;2022-12-18T16:16:48;12.80;;;8.75;;
44110;SDS011;29774;52.664;5.074;2022-12-18T16:19:18;13.10;;;8.82;;
44110;SDS011;29774;52.664;5.074;2022-12-18T16:21:45;10.50;;;7.43;;
44110;SDS011;29774;52.664;5.074;2022-12-18T16:24:15;12.82;;;9.57;;
44110;SDS011;29774;52.664;5.074;2022-12-18T16:26:42;12.40;;;9.48;;
44110;SDS011;29774;52.664;5.074;2022-12-18T16:29:08;11.32;;;8.35;;
44110;SDS011;29774;52.664;5.074;2022-12-18T16:31:34;13.30;;;8.52;;
44110;SDS011;29774;52.664;5.074;2022-12-18T16:34:22;13.13;;;8.95;;
44110;SDS011;29774;52.664;5.074;2022-12-18T16:36:53;12.80;;;9.15;;
44110;SDS011;29774;52.664;5.074;2022-12-18T16:39:23;13.90;;;9.20;;
44110;SDS011;29774;52.664;5.074;2022-12-18T16:41:49;14.38;;;9.13;;
44110;SDS011;29774;52.664;5.074;2022-12-18T16:44:15;13.68;;;8.85;;
44110;SDS011;29774;52.664;5.074;2022-12-18T16:46:41;12.07;;;8.65;;
44110;SDS011;29774;52.664;5.074;2022-12-18T16:49:13;13.10;;;9.32;;
44110;SDS011;29774;52.664;5.074;2022-12-18T16:51:40;15.32;;;9.90;;
44110;SDS011;29774;52.664;5.074;2022-12-18T16:54:07;14.13;;;9.60;;
44110;SDS011;29774;52.664;5.074;2022-12-18T16:56:33;14.32;;;9.70;;
44110;SDS011;29774;52.664;5.074;2022-12-18T16:58:59;11.60;;;8.98;;
44110;SDS011;29774;52.664;5.074;2022-12-18T17:01:27;14.98;;;10.02;;
44110;SDS011;29774;52.664;5.074;2022-12-18T17:03:58;13.50;;;9.80;;
44110;SDS011;29774;52.664;5.074;2022-12-18T17:06:26;14.10;;;9.85;;
44110;SDS011;29774;52.664;5.074;2022-12-18T17:08:57;15.52;;;10.30;;
44110;SDS011;29774;52.664;5.074;2022-12-18T17:11:44;13.55;;;9.23;;
44110;SDS011;29774;52.664;5.074;2022-12-18T17:14:14;15.90;;;10.23;;
44110;SDS011;29774;52.664;5.074;2022-12-18T17:16:41;15.93;;;9.43;;